createdAt,value
2023-02-25T00:00:21.645Z,5.68
2023-02-25T00:01:24.889Z,6.22
2023-02-25T00:02:29.317Z,5.78
2023-02-25T00:03:31.022Z,6.35
2023-02-25T00:04:33.578Z,7.05
2023-02-25T00:05:38.830Z,6.75
2023-02-25T00:06:41.336Z,6.20
2023-02-25T00:07:43.174Z,6.40
2023-02-25T00:08:46.764Z,6.68
2023-02-25T00:09:49.845Z,6.57
2023-02-25T00:10:57.931Z,6.80
2023-02-25T00:11:59.619Z,6.70
2023-02-25T00:13:17.348Z,6.50
2023-02-25T00:14:19.906Z,6.13
2023-02-25T00:15:22.382Z,6.75
2023-02-25T00:16:25.204Z,6.57
2023-02-25T00:17:27.964Z,6.65
2023-02-25T00:18:30.959Z,6.65
2023-02-25T00:19:33.708Z,6.80
2023-02-25T00:20:35.489Z,6.28
2023-02-25T00:21:38.102Z,5.95
2023-02-25T00:22:39.663Z,5.32
2023-02-25T00:23:43.454Z,6.63
2023-02-25T00:24:44.953Z,5.55
2023-02-25T00:25:48.993Z,5.55
2023-02-25T00:26:50.477Z,6.00
2023-02-25T00:27:52.959Z,4.90
2023-02-25T00:28:54.427Z,5.35
2023-02-25T00:29:57.171Z,5.38
2023-02-25T00:30:58.730Z,5.80
2023-02-25T00:32:01.446Z,4.55
2023-02-25T00:33:03.020Z,4.93
2023-02-25T00:34:05.471Z,4.80
2023-02-25T00:35:12.905Z,4.82
2023-02-25T00:36:18.972Z,4.63
2023-02-25T00:37:20.503Z,4.63
2023-02-25T00:38:23.393Z,5.13
2023-02-25T00:39:24.915Z,5.40
2023-02-25T00:40:27.458Z,4.88
2023-02-25T00:41:30.832Z,4.65
2023-02-25T00:42:33.545Z,4.78
2023-02-25T00:43:34.996Z,4.57
2023-02-25T00:44:37.840Z,4.93
2023-02-25T00:45:40.242Z,4.30
2023-02-25T00:46:42.676Z,4.35
2023-02-25T00:47:44.245Z,4.55
2023-02-25T00:48:46.732Z,4.10
2023-02-25T00:49:48.500Z,4.03
2023-02-25T00:50:50.928Z,4.30
2023-02-25T00:51:53.150Z,4.05
2023-02-25T00:52:55.613Z,3.40
2023-02-25T00:53:57.841Z,3.53
2023-02-25T00:55:00.391Z,3.70
2023-02-25T00:56:02.327Z,3.63
2023-02-25T00:57:06.555Z,3.20
2023-02-25T00:58:08.068Z,3.38
2023-02-25T00:59:10.632Z,3.40
2023-02-25T01:00:16.335Z,3.53
2023-02-25T01:01:21.430Z,3.72
2023-02-25T01:02:23.081Z,2.70
2023-02-25T01:03:25.740Z,3.17
2023-02-25T01:04:27.481Z,2.60
2023-02-25T01:05:30.109Z,2.95
2023-02-25T01:06:32.980Z,2.75
2023-02-25T01:07:35.870Z,2.70
2023-02-25T01:08:37.630Z,2.17
2023-02-25T01:09:40.238Z,2.50
2023-02-25T01:10:41.722Z,2.63
2023-02-25T01:11:46.239Z,2.58
2023-02-25T01:12:49.128Z,2.05
2023-02-25T01:13:51.750Z,2.38
2023-02-25T01:14:55.311Z,2.08
2023-02-25T01:15:57.772Z,2.40
2023-02-25T01:17:01.977Z,1.95
2023-02-25T01:18:04.854Z,1.80
2023-02-25T01:19:07.899Z,1.70
2023-02-25T01:20:13.091Z,2.00
2023-02-25T01:21:17.633Z,1.88
2023-02-25T01:22:20.129Z,1.70
2023-02-25T01:23:26.330Z,1.90
2023-02-25T01:24:30.576Z,2.00
2023-02-25T01:25:32.106Z,2.00
2023-02-25T01:26:37.218Z,2.63
2023-02-25T01:27:38.765Z,2.25
2023-02-25T01:28:45.912Z,2.28
2023-02-25T01:29:47.647Z,2.13
2023-02-25T01:30:50.100Z,1.73
2023-02-25T01:31:52.660Z,2.13
2023-02-25T01:32:55.289Z,2.22
2023-02-25T01:33:58.185Z,1.83
2023-02-25T01:35:00.853Z,1.98
2023-02-25T01:36:02.332Z,1.85
2023-02-25T01:37:05.447Z,2.05
2023-02-25T01:38:07.015Z,1.65
2023-02-25T01:39:10.042Z,2.00
2023-02-25T01:40:16.401Z,1.98
2023-02-25T01:41:19.119Z,1.80
2023-02-25T01:42:20.867Z,1.80
2023-02-25T01:43:23.369Z,1.75
2023-02-25T01:44:30.986Z,2.00
2023-02-25T01:45:33.689Z,2.15
2023-02-25T01:46:36.210Z,1.83
2023-02-25T01:47:40.819Z,2.33
2023-02-25T01:48:42.368Z,1.90
2023-02-25T01:49:47.567Z,1.60
2023-02-25T01:50:51.962Z,2.00
2023-02-25T01:51:58.843Z,1.63
2023-02-25T01:53:02.633Z,1.75
2023-02-25T01:54:07.183Z,1.60
2023-02-25T01:55:11.051Z,1.95
2023-02-25T01:56:18.165Z,1.40
2023-02-25T01:57:21.079Z,2.50
2023-02-25T01:58:23.916Z,1.70
2023-02-25T01:59:29.708Z,1.95
2023-02-25T02:00:34.450Z,1.80
2023-02-25T02:01:40.894Z,1.67
2023-02-25T02:02:44.896Z,1.83
2023-02-25T02:03:48.459Z,1.73
2023-02-25T02:04:53.175Z,1.92
2023-02-25T02:06:02.307Z,1.80
2023-02-25T02:07:10.425Z,1.27
2023-02-25T02:08:13.371Z,2.05
2023-02-25T02:09:18.470Z,1.70
2023-02-25T02:10:21.363Z,1.83
2023-02-25T02:11:22.884Z,1.58
2023-02-25T02:12:27.574Z,1.75
2023-02-25T02:13:30.327Z,2.28
2023-02-25T02:14:37.225Z,1.75
2023-02-25T02:15:45.271Z,1.70
2023-02-25T02:17:06.957Z,1.70
2023-02-25T02:18:10.012Z,2.00
2023-02-25T02:19:28.745Z,1.70
2023-02-25T02:20:35.777Z,1.60
2023-02-25T02:21:55.623Z,1.80
2023-02-25T02:23:14.774Z,1.52
2023-02-25T02:24:37.400Z,1.50
2023-02-25T02:26:18.343Z,2.00
2023-02-25T02:27:25.923Z,1.35
2023-02-25T02:29:06.386Z,1.40
2023-02-25T02:30:29.831Z,1.80
2023-02-25T02:32:09.213Z,1.50
2023-02-25T02:33:18.590Z,1.70
2023-02-25T02:34:32.141Z,1.58
2023-02-25T02:35:40.182Z,1.65
2023-02-25T02:36:53.861Z,2.15
2023-02-25T02:38:12.177Z,1.70
2023-02-25T02:39:20.329Z,1.55
2023-02-25T02:40:34.804Z,2.38
2023-02-25T02:41:42.552Z,1.45
2023-02-25T02:42:54.235Z,1.13
2023-02-25T02:44:02.243Z,2.05
2023-02-25T02:45:13.084Z,1.75
2023-02-25T02:47:25.473Z,1.90
2023-02-25T02:48:35.210Z,1.92
2023-02-25T02:49:40.915Z,1.65
2023-02-25T02:50:47.211Z,2.00
2023-02-25T02:51:56.829Z,1.90
2023-02-25T02:53:04.398Z,2.10
2023-02-25T02:54:08.724Z,2.00
2023-02-25T02:55:22.350Z,2.35
2023-02-25T02:56:26.498Z,1.63
2023-02-25T02:57:31.317Z,1.63
2023-02-25T02:58:36.474Z,1.40
2023-02-25T02:59:42.801Z,1.88
2023-02-25T03:00:49.712Z,1.67
2023-02-25T03:01:57.591Z,1.50
2023-02-25T03:03:07.416Z,1.45
2023-02-25T03:04:14.149Z,1.60
2023-02-25T03:05:17.204Z,1.90
2023-02-25T03:06:24.547Z,1.90
2023-02-25T03:07:27.362Z,1.40
2023-02-25T03:08:33.696Z,1.60
2023-02-25T03:09:39.879Z,1.50
2023-02-25T03:10:42.885Z,1.90
2023-02-25T03:11:44.578Z,1.80
2023-02-25T03:12:47.114Z,1.42
2023-02-25T03:13:50.911Z,2.22
2023-02-25T03:14:53.401Z,1.70
2023-02-25T03:15:56.405Z,2.47
2023-02-25T03:17:05.288Z,1.90
2023-02-25T03:18:13.188Z,2.00
2023-02-25T03:19:18.766Z,2.00
2023-02-25T03:20:25.307Z,1.70
2023-02-25T03:21:33.384Z,2.15
2023-02-25T03:22:39.336Z,1.85
2023-02-25T03:23:43.974Z,1.90
2023-02-25T03:24:53.531Z,1.95
2023-02-25T03:26:00.186Z,1.90
2023-02-25T03:27:20.027Z,1.90
2023-02-25T03:28:27.524Z,1.73
2023-02-25T03:29:29.050Z,1.95
2023-02-25T03:30:36.307Z,2.38
2023-02-25T03:31:43.698Z,1.92
2023-02-25T03:32:49.344Z,1.80
2023-02-25T03:33:56.342Z,1.58
2023-02-25T03:35:02.130Z,1.88
2023-02-25T03:36:09.819Z,2.00
2023-02-25T03:37:16.019Z,1.73
2023-02-25T03:38:21.006Z,1.80
2023-02-25T03:39:28.828Z,1.88
2023-02-25T03:40:32.596Z,1.98
2023-02-25T03:41:39.288Z,1.92
2023-02-25T03:42:46.848Z,1.63
2023-02-25T03:43:54.726Z,1.75
2023-02-25T03:45:01.345Z,2.25
2023-02-25T03:46:06.051Z,1.60
2023-02-25T03:47:11.003Z,1.95
2023-02-25T03:48:16.154Z,2.05
2023-02-25T03:49:23.596Z,1.92
2023-02-25T03:50:30.851Z,1.70
2023-02-25T03:51:36.114Z,1.90
2023-02-25T03:52:40.706Z,1.65
2023-02-25T03:53:42.280Z,2.33
2023-02-25T03:54:44.737Z,1.60
2023-02-25T03:55:47.140Z,1.83
2023-02-25T03:56:52.461Z,2.13
2023-02-25T03:57:53.963Z,1.65
2023-02-25T03:58:56.392Z,2.05
2023-02-25T03:59:57.855Z,1.95
2023-02-25T04:01:03.430Z,1.80
2023-02-25T04:02:05.318Z,1.77
2023-02-25T04:03:07.853Z,1.92
2023-02-25T04:04:09.817Z,2.25
2023-02-25T04:05:13.930Z,1.98
2023-02-25T04:06:15.416Z,1.35
2023-02-25T04:07:17.935Z,1.83
2023-02-25T04:08:19.649Z,1.98
2023-02-25T04:09:22.135Z,1.50
2023-02-25T04:10:24.572Z,1.80
2023-02-25T04:11:27.150Z,2.20
2023-02-25T04:12:28.821Z,1.80
2023-02-25T04:13:31.294Z,2.20
2023-02-25T04:14:32.763Z,1.80
2023-02-25T04:15:35.212Z,2.03
2023-02-25T04:16:37.096Z,1.65
2023-02-25T04:17:39.556Z,1.92
2023-02-25T04:18:41.809Z,1.33
2023-02-25T04:19:44.310Z,1.20
2023-02-25T04:20:47.249Z,1.17
2023-02-25T04:21:49.670Z,2.45
2023-02-25T04:22:51.251Z,1.45
2023-02-25T04:23:54.142Z,1.33
2023-02-25T04:24:55.681Z,1.52
2023-02-25T04:25:58.080Z,1.25
2023-02-25T04:27:01.623Z,2.25
2023-02-25T04:28:04.366Z,1.33
2023-02-25T04:29:05.851Z,1.80
2023-02-25T04:30:10.261Z,2.05
2023-02-25T04:31:11.833Z,1.80
2023-02-25T04:32:14.441Z,1.65
2023-02-25T04:33:15.972Z,1.35
2023-02-25T04:34:18.382Z,1.80
2023-02-25T04:35:19.949Z,1.70
2023-02-25T04:36:25.441Z,1.85
2023-02-25T04:37:26.984Z,1.52
2023-02-25T04:38:29.384Z,1.80
2023-02-25T04:39:32.051Z,1.95
2023-02-25T04:40:34.689Z,1.80
2023-02-25T04:41:36.618Z,1.45
2023-02-25T04:42:39.196Z,1.17
2023-02-25T04:43:41.050Z,1.77
2023-02-25T04:44:43.464Z,1.50
2023-02-25T04:45:45.123Z,1.75
2023-02-25T04:46:52.018Z,1.77
2023-02-25T04:47:54.694Z,1.73
2023-02-25T04:48:57.855Z,1.60
2023-02-25T04:49:59.409Z,1.65
2023-02-25T04:51:01.984Z,1.58
2023-02-25T04:52:04.817Z,1.52
2023-02-25T04:53:07.304Z,1.33
2023-02-25T04:54:08.844Z,1.38
2023-02-25T04:55:11.955Z,1.10
2023-02-25T04:56:13.888Z,1.20
2023-02-25T04:57:16.317Z,2.00
2023-02-25T04:58:17.797Z,1.48
2023-02-25T04:59:20.333Z,1.40
2023-02-25T05:00:24.113Z,1.63
2023-02-25T05:01:26.694Z,1.23
2023-02-25T05:02:28.419Z,1.40
2023-02-25T05:03:30.896Z,1.70
2023-02-25T05:04:33.195Z,1.25
2023-02-25T05:05:35.656Z,1.42
2023-02-25T05:06:37.264Z,1.27
2023-02-25T05:07:41.179Z,1.20
2023-02-25T05:08:42.655Z,1.30
2023-02-25T05:09:45.154Z,1.80
2023-02-25T05:10:46.655Z,1.48
2023-02-25T05:11:49.179Z,1.48
2023-02-25T05:12:50.680Z,1.40
2023-02-25T05:13:55.576Z,1.63
2023-02-25T05:14:57.112Z,1.48
2023-02-25T05:16:08.077Z,1.50
2023-02-25T05:17:09.836Z,1.50
2023-02-25T05:18:12.349Z,1.38
2023-02-25T05:19:16.541Z,1.90
2023-02-25T05:20:19.781Z,1.90
2023-02-25T05:21:24.009Z,2.30
2023-02-25T05:22:27.247Z,2.00
2023-02-25T05:23:30.087Z,1.83
2023-02-25T05:24:32.541Z,1.58
2023-02-25T05:25:34.916Z,1.60
2023-02-25T05:26:37.322Z,1.60
2023-02-25T05:27:38.984Z,1.52
2023-02-25T05:28:43.589Z,1.65
2023-02-25T05:29:45.118Z,1.50
2023-02-25T05:30:47.844Z,1.00
2023-02-25T05:31:51.798Z,1.08
2023-02-25T05:32:54.431Z,1.02
2023-02-25T05:33:56.013Z,1.02
2023-02-25T05:34:58.662Z,1.00
2023-02-25T05:36:00.448Z,1.23
2023-02-25T05:37:02.988Z,1.17
2023-02-25T05:38:04.459Z,1.10
2023-02-25T05:39:08.363Z,0.95
2023-02-25T05:40:13.957Z,1.17
2023-02-25T05:41:17.137Z,0.80
2023-02-25T05:42:18.728Z,1.00
2023-02-25T05:43:21.243Z,0.90
2023-02-25T05:44:22.779Z,0.88
2023-02-25T05:45:25.258Z,1.10
2023-02-25T05:46:27.333Z,0.80
2023-02-25T05:47:30.076Z,0.90
2023-02-25T05:48:32.682Z,0.70
2023-02-25T05:49:35.171Z,0.85
2023-02-25T05:50:41.114Z,0.80
2023-02-25T05:51:43.866Z,0.90
2023-02-25T05:52:45.427Z,0.77
2023-02-25T05:53:49.065Z,0.90
2023-02-25T05:54:51.905Z,0.98
2023-02-25T05:55:55.674Z,0.85
2023-02-25T05:56:57.115Z,0.95
2023-02-25T05:57:59.526Z,1.40
2023-02-25T05:59:01.019Z,1.00
2023-02-25T06:00:09.604Z,1.00
2023-02-25T06:01:13.702Z,1.05
2023-02-25T06:02:16.501Z,0.98
2023-02-25T06:03:18.574Z,1.05
2023-02-25T06:04:22.129Z,0.82
2023-02-25T06:05:23.626Z,0.80
2023-02-25T06:06:27.675Z,0.90
2023-02-25T06:07:29.666Z,0.77
2023-02-25T06:08:32.124Z,0.80
2023-02-25T06:09:34.621Z,0.80
2023-02-25T06:10:40.120Z,1.35
2023-02-25T06:11:41.626Z,0.60
2023-02-25T06:12:46.419Z,0.63
2023-02-25T06:13:48.824Z,0.70
2023-02-25T06:14:51.297Z,0.80
2023-02-25T06:15:52.827Z,0.63
2023-02-25T06:16:56.767Z,0.60
2023-02-25T06:17:58.356Z,0.73
2023-02-25T06:19:02.528Z,0.60
2023-02-25T06:20:05.397Z,0.55
2023-02-25T06:21:10.170Z,0.60
2023-02-25T06:22:11.694Z,1.08
2023-02-25T06:23:14.404Z,0.70
2023-02-25T06:24:16.457Z,0.65
2023-02-25T06:25:19.291Z,0.68
2023-02-25T06:26:22.755Z,1.20
2023-02-25T06:27:25.707Z,0.80
2023-02-25T06:28:27.207Z,1.23
2023-02-25T06:29:29.791Z,0.88
2023-02-25T06:30:31.634Z,0.90
2023-02-25T06:31:35.059Z,1.10
2023-02-25T06:32:36.907Z,1.00
2023-02-25T06:33:40.310Z,1.08
2023-02-25T06:34:41.956Z,1.00
2023-02-25T06:35:44.849Z,0.80
2023-02-25T06:36:46.860Z,0.93
2023-02-25T06:37:49.244Z,1.00
2023-02-25T06:38:51.752Z,1.05
2023-02-25T06:39:53.700Z,1.10
2023-02-25T06:40:56.103Z,1.27
2023-02-25T06:41:59.277Z,0.98
2023-02-25T06:43:01.747Z,0.93
2023-02-25T06:44:04.249Z,1.30
2023-02-25T06:45:07.831Z,1.50
2023-02-25T06:46:11.391Z,1.50
2023-02-25T06:47:13.859Z,1.67
2023-02-25T06:48:15.353Z,1.42
2023-02-25T06:49:17.787Z,1.80
2023-02-25T06:50:20.286Z,1.55
2023-02-25T06:51:23.427Z,1.70
2023-02-25T06:52:24.980Z,1.40
2023-02-25T06:53:27.558Z,1.48
2023-02-25T06:54:30.049Z,1.65
2023-02-25T06:55:31.586Z,1.73
2023-02-25T06:56:34.034Z,1.52
2023-02-25T06:57:36.935Z,1.58
2023-02-25T06:58:40.252Z,1.73
2023-02-25T06:59:41.826Z,1.88
2023-02-25T07:00:45.044Z,2.58
2023-02-25T07:01:47.654Z,2.05
2023-02-25T07:02:49.401Z,1.95
2023-02-25T07:03:52.182Z,1.70
2023-02-25T07:04:54.497Z,1.75
2023-02-25T07:05:56.978Z,1.70
2023-02-25T07:06:58.615Z,1.60
2023-02-25T07:08:01.104Z,1.40
2023-02-25T07:09:02.610Z,1.73
2023-02-25T07:10:06.157Z,1.80
2023-02-25T07:11:27.021Z,1.88
2023-02-25T07:12:28.794Z,1.17
2023-02-25T07:13:32.543Z,1.40
2023-02-25T07:14:34.098Z,1.52
2023-02-25T07:15:36.727Z,1.50
2023-02-25T07:16:38.414Z,1.55
2023-02-25T07:17:41.163Z,1.35
2023-02-25T07:18:43.512Z,1.83
2023-02-25T07:19:46.469Z,2.03
2023-02-25T07:20:47.985Z,1.60
2023-02-25T07:21:50.454Z,1.80
2023-02-25T07:22:51.902Z,1.45
2023-02-25T07:23:54.357Z,1.48
2023-02-25T07:24:56.825Z,1.77
2023-02-25T07:26:02.719Z,1.75
2023-02-25T07:27:05.108Z,1.85
2023-02-25T07:28:06.584Z,1.83
2023-02-25T07:29:10.445Z,2.05
2023-02-25T07:30:13.166Z,1.58
2023-02-25T07:31:21.140Z,2.03
2023-02-25T07:32:24.321Z,1.70
2023-02-25T07:33:27.346Z,1.88
2023-02-25T07:34:28.903Z,1.60
2023-02-25T07:35:35.808Z,1.60
2023-02-25T07:36:38.091Z,1.50
2023-02-25T07:37:41.167Z,1.70
2023-02-25T07:38:42.915Z,1.67
2023-02-25T07:39:47.627Z,2.03
2023-02-25T07:40:49.529Z,1.60
2023-02-25T07:41:57.052Z,1.60
2023-02-25T07:42:58.540Z,1.60
2023-02-25T07:44:01.212Z,1.85
2023-02-25T07:45:04.967Z,1.70
2023-02-25T07:46:08.294Z,2.05
2023-02-25T07:47:10.804Z,1.55
2023-02-25T07:48:12.363Z,1.50
2023-02-25T07:49:14.932Z,1.80
2023-02-25T07:50:16.483Z,2.05
2023-02-25T07:51:23.346Z,1.73
2023-02-25T07:52:25.072Z,1.60
2023-02-25T07:53:27.489Z,1.70
2023-02-25T07:54:29.177Z,2.08
2023-02-25T07:55:32.060Z,1.75
2023-02-25T07:56:34.556Z,1.55
2023-02-25T07:57:36.079Z,1.50
2023-02-25T07:58:41.130Z,1.60
2023-02-25T07:59:42.938Z,1.90
2023-02-25T08:00:48.045Z,1.40
2023-02-25T08:01:49.802Z,1.63
2023-02-25T08:02:52.399Z,1.38
2023-02-25T08:03:56.280Z,1.67
2023-02-25T08:05:00.704Z,1.10
2023-02-25T08:06:09.064Z,1.13
2023-02-25T08:07:10.693Z,1.60
2023-02-25T08:08:13.728Z,1.55
2023-02-25T08:09:16.312Z,1.40
2023-02-25T08:10:18.166Z,1.45
2023-02-25T08:11:21.242Z,1.20
2023-02-25T08:12:23.091Z,1.20
2023-02-25T08:13:25.829Z,1.30
2023-02-25T08:14:28.351Z,1.42
2023-02-25T08:15:29.986Z,1.55
2023-02-25T08:16:34.699Z,1.58
2023-02-25T08:17:36.260Z,1.48
2023-02-25T08:18:42.790Z,1.52
2023-02-25T08:19:44.430Z,1.52
2023-02-25T08:20:48.202Z,1.77
2023-02-25T08:21:49.750Z,1.40
2023-02-25T08:22:52.164Z,1.27
2023-02-25T08:23:54.405Z,1.73
2023-02-25T08:24:56.976Z,1.63
2023-02-25T08:25:59.623Z,1.50
2023-02-25T08:27:02.130Z,1.60
2023-02-25T08:28:04.555Z,1.70
2023-02-25T08:29:07.603Z,1.67
2023-02-25T08:30:10.535Z,1.25
2023-02-25T08:31:13.913Z,1.90
2023-02-25T08:32:17.937Z,1.60
2023-02-25T08:33:20.588Z,1.80
2023-02-25T08:34:23.105Z,2.00
2023-02-25T08:35:25.599Z,2.40
2023-02-25T08:36:31.605Z,1.73
2023-02-25T08:37:33.507Z,1.63
2023-02-25T08:38:36.474Z,1.80
2023-02-25T08:39:39.047Z,1.65
2023-02-25T08:40:40.607Z,1.95
2023-02-25T08:41:44.217Z,2.40
2023-02-25T08:42:45.729Z,1.98
2023-02-25T08:43:49.553Z,1.90
2023-02-25T08:44:52.026Z,1.90
2023-02-25T08:45:53.593Z,1.98
2023-02-25T08:46:56.061Z,2.20
2023-02-25T08:47:58.987Z,2.03
2023-02-25T08:49:02.332Z,2.13
2023-02-25T08:50:05.470Z,1.77
2023-02-25T08:51:10.528Z,1.85
2023-02-25T08:52:13.931Z,1.50
2023-02-25T08:53:15.469Z,1.98
2023-02-25T08:54:18.076Z,2.08
2023-02-25T08:55:19.622Z,2.15
2023-02-25T08:56:23.049Z,2.25
2023-02-25T08:57:26.169Z,1.77
2023-02-25T08:58:28.712Z,2.15
2023-02-25T08:59:37.392Z,1.70
2023-02-25T09:00:40.376Z,1.63
2023-02-25T09:01:45.456Z,2.05
2023-02-25T09:02:49.418Z,1.88
2023-02-25T09:03:53.768Z,2.10
2023-02-25T09:04:57.492Z,1.98
2023-02-25T09:05:59.095Z,1.98
2023-02-25T09:07:02.331Z,2.00
2023-02-25T09:08:04.909Z,1.58
2023-02-25T09:09:07.586Z,1.50
2023-02-25T09:10:10.569Z,1.70
2023-02-25T09:11:13.181Z,2.30
2023-02-25T09:12:14.827Z,1.70
2023-02-25T09:13:17.406Z,1.85
2023-02-25T09:14:19.260Z,1.73
2023-02-25T09:15:22.361Z,1.73
2023-02-25T09:16:23.869Z,1.63
2023-02-25T09:17:26.449Z,1.77
2023-02-25T09:18:28.397Z,1.60
2023-02-25T09:19:38.366Z,1.50
2023-02-25T09:20:39.888Z,1.85
2023-02-25T09:21:42.824Z,1.50
2023-02-25T09:22:45.354Z,1.83
2023-02-25T09:23:48.437Z,2.00
2023-02-25T09:24:49.903Z,1.75
2023-02-25T09:25:52.299Z,1.70
2023-02-25T09:26:57.481Z,1.60
2023-02-25T09:27:58.989Z,1.88
2023-02-25T09:29:02.014Z,1.42
2023-02-25T09:30:04.002Z,1.80
2023-02-25T09:31:06.533Z,1.40
2023-02-25T09:32:17.143Z,1.50
2023-02-25T09:33:19.765Z,1.00
2023-02-25T09:34:22.195Z,1.20
2023-02-25T09:35:25.988Z,1.70
2023-02-25T09:36:28.751Z,1.40
2023-02-25T09:37:31.238Z,1.45
2023-02-25T09:38:32.716Z,1.20
2023-02-25T09:39:35.179Z,1.60
2023-02-25T09:40:37.526Z,1.50
2023-02-25T09:41:51.089Z,1.45
2023-02-25T09:43:05.931Z,1.40
2023-02-25T09:44:13.487Z,1.25
2023-02-25T09:45:19.887Z,1.20
2023-02-25T09:46:23.173Z,1.35
2023-02-25T09:47:32.327Z,1.00
2023-02-25T09:48:37.558Z,1.45
2023-02-25T09:49:47.288Z,1.10
2023-02-25T09:50:54.787Z,1.27
2023-02-25T09:52:02.331Z,0.90
2023-02-25T09:53:11.010Z,1.35
2023-02-25T09:54:21.669Z,1.30
2023-02-25T09:55:32.787Z,0.98
2023-02-25T09:56:36.664Z,1.17
2023-02-25T09:57:41.975Z,1.25
2023-02-25T09:58:46.957Z,1.42
2023-02-25T09:59:50.129Z,1.20
2023-02-25T10:01:02.682Z,1.20
2023-02-25T10:02:21.243Z,1.23
2023-02-25T10:03:30.455Z,1.35
2023-02-25T10:04:40.532Z,1.50
2023-02-25T10:05:48.366Z,1.40
2023-02-25T10:06:55.938Z,1.60
2023-02-25T10:08:07.525Z,1.35
2023-02-25T10:09:19.414Z,1.77
2023-02-25T10:10:28.053Z,1.30
2023-02-25T10:11:47.883Z,1.25
2023-02-25T10:13:03.581Z,1.30
2023-02-25T10:14:20.717Z,1.55
2023-02-25T10:15:33.418Z,1.30
2023-02-25T10:16:46.706Z,1.70
2023-02-25T10:18:05.507Z,1.50
2023-02-25T10:19:19.417Z,1.40
2023-02-25T10:20:43.716Z,1.65
2023-02-25T10:22:01.997Z,1.35
2023-02-25T10:23:13.996Z,1.30
2023-02-25T10:24:29.210Z,1.50
2023-02-25T10:25:34.983Z,1.40
2023-02-25T10:26:40.417Z,1.50
2023-02-25T10:27:47.346Z,1.40
2023-02-25T10:28:54.026Z,1.48
2023-02-25T10:30:01.652Z,1.92
2023-02-25T10:31:08.110Z,1.60
2023-02-25T10:32:17.683Z,1.60
2023-02-25T10:33:24.457Z,1.80
2023-02-25T10:34:28.900Z,1.67
2023-02-25T10:35:35.669Z,1.80
2023-02-25T10:36:43.292Z,1.45
2023-02-25T10:37:47.411Z,1.30
2023-02-25T10:38:51.346Z,1.65
2023-02-25T10:39:57.537Z,1.50
2023-02-25T10:40:59.212Z,1.33
2023-02-25T10:42:01.995Z,1.73
2023-02-25T10:43:22.249Z,1.60
2023-02-25T10:44:24.715Z,1.15
2023-02-25T10:45:28.069Z,1.48
2023-02-25T10:46:38.806Z,1.05
2023-02-25T10:48:52.181Z,1.20
2023-02-25T10:50:15.402Z,1.48
2023-02-25T10:51:18.126Z,1.30
2023-02-25T10:52:19.936Z,1.10
2023-02-25T10:53:24.237Z,1.10
2023-02-25T10:54:26.021Z,1.40
2023-02-25T10:55:42.206Z,1.45
2023-02-25T10:56:45.933Z,1.30
2023-02-25T10:57:48.470Z,1.45
2023-02-25T10:59:02.877Z,1.25
2023-02-25T11:00:07.399Z,1.30
2023-02-25T11:01:16.065Z,1.27
2023-02-25T11:02:23.323Z,1.10
2023-02-25T11:03:28.091Z,1.27
2023-02-25T11:04:34.367Z,1.50
2023-02-25T11:05:40.710Z,1.35
2023-02-25T11:06:45.063Z,1.48
2023-02-25T11:07:48.686Z,1.38
2023-02-25T11:08:54.658Z,0.90
2023-02-25T11:10:09.919Z,0.98
2023-02-25T11:11:17.234Z,0.90
2023-02-25T11:12:20.278Z,1.10
2023-02-25T11:13:28.999Z,1.17
2023-02-25T11:14:33.381Z,0.85
2023-02-25T11:15:45.209Z,1.15
2023-02-25T11:16:48.995Z,1.13
2023-02-25T11:17:51.171Z,0.80
2023-02-25T11:18:57.581Z,1.02
2023-02-25T11:20:02.517Z,0.98
2023-02-25T11:21:07.462Z,0.93
2023-02-25T11:22:12.212Z,1.25
2023-02-25T11:23:21.729Z,1.02
2023-02-25T11:24:33.445Z,1.00
2023-02-25T11:25:38.978Z,1.08
2023-02-25T11:26:44.872Z,1.10
2023-02-25T11:27:55.007Z,1.02
2023-02-25T11:29:01.165Z,0.90
2023-02-25T11:30:06.838Z,1.10
2023-02-25T11:31:16.836Z,0.93
2023-02-25T11:32:22.420Z,1.05
2023-02-25T11:33:29.695Z,1.15
2023-02-25T11:34:33.214Z,1.10
2023-02-25T11:35:37.462Z,1.10
2023-02-25T11:36:40.872Z,1.20
2023-02-25T11:37:45.554Z,1.10
2023-02-25T11:38:48.187Z,0.95
2023-02-25T11:39:55.346Z,1.60
2023-02-25T11:40:57.812Z,1.35
2023-02-25T11:42:18.839Z,1.20
2023-02-25T11:44:29.880Z,1.00
2023-02-25T11:45:34.140Z,0.80
2023-02-25T11:46:38.514Z,0.90
2023-02-25T11:47:42.390Z,0.77
2023-02-25T11:48:50.758Z,0.93
2023-02-25T11:50:05.040Z,0.70
2023-02-25T11:51:17.067Z,0.90
2023-02-25T11:52:25.985Z,0.68
2023-02-25T11:53:43.076Z,0.65
2023-02-25T11:54:56.419Z,0.70
2023-02-25T11:56:09.796Z,0.90
2023-02-25T11:57:18.578Z,0.90
2023-02-25T11:58:30.442Z,0.80
2023-02-25T11:59:37.118Z,1.00
2023-02-25T12:00:47.145Z,1.42
2023-02-25T12:02:04.910Z,1.60
2023-02-25T12:03:31.221Z,1.25
2023-02-25T12:04:52.259Z,0.90
2023-02-25T12:07:59.977Z,1.20
2023-02-25T12:09:36.383Z,0.98
2023-02-25T12:11:15.316Z,0.98
2023-02-25T12:12:48.447Z,1.73
2023-02-25T12:14:12.555Z,1.80
2023-02-25T12:15:39.790Z,2.10
2023-02-25T12:17:06.118Z,0.90
2023-02-25T12:18:29.729Z,1.08
2023-02-25T12:20:09.992Z,0.77
2023-02-25T12:21:43.200Z,0.68
2023-02-25T12:23:16.268Z,0.50
2023-02-25T12:24:37.709Z,0.40
2023-02-25T12:25:49.627Z,0.50
2023-02-25T12:27:09.526Z,0.40
2023-02-25T12:28:40.799Z,0.65
2023-02-25T12:30:13.071Z,0.52
2023-02-25T12:31:40.248Z,0.60
2023-02-25T12:32:58.772Z,0.60
2023-02-25T12:34:35.775Z,0.55
2023-02-25T12:35:56.225Z,0.88
2023-02-25T12:37:09.974Z,0.43
2023-02-25T12:38:58.262Z,0.52
2023-02-25T12:40:28.526Z,0.57
2023-02-25T12:41:39.185Z,0.63
2023-02-25T12:43:01.762Z,0.60
2023-02-25T12:44:23.685Z,0.45
2023-02-25T12:45:45.925Z,0.45
2023-02-25T12:47:06.563Z,0.40
2023-02-25T12:48:35.125Z,0.30
2023-02-25T12:49:54.702Z,0.30
2023-02-25T12:51:18.933Z,0.90
2023-02-25T12:52:35.292Z,0.77
2023-02-25T12:53:50.001Z,0.47
2023-02-25T12:55:27.707Z,1.10
2023-02-25T12:56:53.272Z,0.60
2023-02-25T12:58:26.792Z,0.40
2023-02-25T12:59:46.059Z,0.70
2023-02-25T13:01:24.879Z,0.60
2023-02-25T13:02:54.785Z,0.60
2023-02-25T13:04:14.215Z,0.70
2023-02-25T13:05:35.235Z,1.10
2023-02-25T13:08:11.285Z,0.85
2023-02-25T13:09:34.202Z,0.90
2023-02-25T13:10:52.880Z,0.90
2023-02-25T13:12:14.125Z,0.80
2023-02-25T13:13:31.240Z,0.77
2023-02-25T13:14:46.995Z,0.80
2023-02-25T13:16:04.808Z,1.00
2023-02-25T13:17:25.234Z,1.15
2023-02-25T13:18:35.753Z,1.13
2023-02-25T13:20:00.957Z,0.95
2023-02-25T13:21:18.015Z,1.15
2023-02-25T13:22:48.708Z,1.40
2023-02-25T13:24:18.516Z,1.10
2023-02-25T13:25:30.805Z,1.10
2023-02-25T13:27:01.609Z,0.85
2023-02-25T13:28:21.130Z,0.70
2023-02-25T13:29:36.590Z,0.77
2023-02-25T13:30:50.039Z,0.90
2023-02-25T13:32:01.842Z,1.05
2023-02-25T13:33:21.608Z,0.80
2023-02-25T13:34:35.782Z,0.90
2023-02-25T13:35:54.489Z,0.60
2023-02-25T13:37:12.879Z,1.00
2023-02-25T13:38:29.706Z,0.60
2023-02-25T13:40:12.680Z,0.80
2023-02-25T13:41:37.507Z,0.68
2023-02-25T13:42:58.689Z,0.77
2023-02-25T13:44:23.324Z,0.80
2023-02-25T13:45:35.803Z,0.65
2023-02-25T13:46:52.546Z,0.70
2023-02-25T13:48:06.817Z,0.65
2023-02-25T13:49:41.929Z,0.70
2023-02-25T13:51:02.781Z,0.68
2023-02-25T13:52:31.552Z,0.40
2023-02-25T13:53:57.035Z,1.00
2023-02-25T13:55:24.789Z,0.45
2023-02-25T13:56:46.052Z,0.68
2023-02-25T13:58:06.832Z,0.50
2023-02-25T13:59:23.562Z,0.40
2023-02-25T14:01:03.620Z,0.35
2023-02-25T14:02:35.663Z,0.60
2023-02-25T14:04:17.805Z,0.57
2023-02-25T14:05:37.951Z,0.80
2023-02-25T14:07:06.499Z,0.50
2023-02-25T14:08:24.914Z,0.50
2023-02-25T14:09:39.479Z,0.70
2023-02-25T14:10:50.643Z,0.70
2023-02-25T14:12:12.063Z,0.60
2023-02-25T14:13:33.024Z,0.70
2023-02-25T14:14:58.009Z,0.77
2023-02-25T14:16:11.848Z,1.08
2023-02-25T14:17:29.555Z,0.90
2023-02-25T14:18:57.545Z,0.95
2023-02-25T14:20:14.152Z,1.00
2023-02-25T14:21:44.105Z,0.93
2023-02-25T14:22:52.068Z,0.98
2023-02-25T14:24:01.060Z,1.27
2023-02-25T14:25:15.668Z,0.95
2023-02-25T14:26:28.624Z,1.30
2023-02-25T14:27:42.810Z,1.17
2023-02-25T14:28:57.891Z,1.40
2023-02-25T14:30:13.275Z,1.33
2023-02-25T14:31:24.602Z,1.35
2023-02-25T14:32:43.850Z,1.10
2023-02-25T14:34:06.913Z,1.00
2023-02-25T14:35:26.165Z,1.33
2023-02-25T14:36:46.365Z,1.30
2023-02-25T14:38:02.400Z,1.30
2023-02-25T14:39:23.732Z,1.20
2023-02-25T14:40:31.918Z,1.10
2023-02-25T14:41:47.945Z,0.80
2023-02-25T14:43:17.737Z,1.10
2023-02-25T14:44:29.458Z,0.90
2023-02-25T14:45:37.962Z,0.75
2023-02-25T14:46:43.868Z,0.80
2023-02-25T14:47:51.336Z,1.40
2023-02-25T14:49:01.547Z,1.00
2023-02-25T14:50:09.417Z,0.68
2023-02-25T14:51:51.641Z,1.08
2023-02-25T14:53:22.332Z,0.80
2023-02-25T14:55:00.383Z,0.47
2023-02-25T14:56:46.080Z,0.90
2023-02-25T14:58:13.678Z,0.77
2023-02-25T14:59:50.192Z,0.68
2023-02-25T15:01:44.224Z,0.30
2023-02-25T15:03:03.808Z,0.40
2023-02-25T15:04:25.944Z,1.00
2023-02-25T15:05:39.095Z,1.20
2023-02-25T15:06:58.650Z,1.45
2023-02-25T15:08:21.309Z,1.20